Time;durP1;ratioP1;P1;durP2;ratioP2;P2;SDS_P1;SDS_P2;PMS_P1;PMS_P2;Temp;Humidity;BMP_temperature;BMP_pressure;BME280_temperature;BME280_humidity;BME280_pressure;Samples;Min_cycle;Max_cycle;Signal;HPM_P1;HPM_P2
2021/06/03 00:00:53;;;;;;;4.95;4.13;;;;;;;;;;5093897;28;20230;-42
2021/06/03 00:03:19;;;;;;;5.47;4.10;;;;;;;;;;5094606;28;20201;-42
2021/06/03 00:05:50;;;;;;;6.70;3.95;;;;;;;;;;5094627;28;20174;-42
2021/06/03 00:08:16;;;;;;;6.15;4.00;;;;;;;;;;5105216;28;20184;-42
2021/06/03 00:10:44;;;;;;;4.95;3.83;;;;;;;;;;5094163;28;20234;-42
2021/06/03 00:13:10;;;;;;;4.80;3.72;;;;;;;;;;5101377;28;20173;-42
2021/06/03 00:15:37;;;;;;;3.97;3.60;;;;;;;;;;5114853;28;20237;-42
2021/06/03 00:18:03;;;;;;;5.25;3.70;;;;;;;;;;5101554;28;20559;-42
2021/06/03 00:20:30;;;;;;;4.60;3.78;;;;;;;;;;5091411;28;20504;-42
2021/06/03 00:22:57;;;;;;;4.35;3.92;;;;;;;;;;5111357;28;20215;-42
2021/06/03 00:25:23;;;;;;;4.10;3.70;;;;;;;;;;5114589;28;20260;-42
2021/06/03 00:27:50;;;;;;;4.68;3.42;;;;;;;;;;5114771;28;20199;-42
2021/06/03 00:30:16;;;;;;;4.57;3.67;;;;;;;;;;5112815;28;20223;-42
2021/06/03 00:32:42;;;;;;;4.60;3.38;;;;;;;;;;5098405;28;20552;-42
2021/06/03 00:35:08;;;;;;;3.97;3.08;;;;;;;;;;5094169;28;20228;-42
2021/06/03 00:37:34;;;;;;;3.80;3.10;;;;;;;;;;5094308;28;20174;-42
2021/06/03 00:40:01;;;;;;;3.63;3.05;;;;;;;;;;5094178;28;20178;-42
2021/06/03 00:42:28;;;;;;;2.88;2.67;;;;;;;;;;5094634;28;20205;-42
2021/06/03 00:44:54;;;;;;;3.40;3.10;;;;;;;;;;5094319;28;20177;-42
2021/06/03 00:47:20;;;;;;;3.67;3.33;;;;;;;;;;5094289;28;20560;-42
2021/06/03 00:49:46;;;;;;;5.35;3.30;;;;;;;;;;5093989;28;20178;-42
2021/06/03 00:52:12;;;;;;;4.25;3.20;;;;;;;;;;5087304;28;20602;-42
2021/06/03 00:54:38;;;;;;;3.20;2.90;;;;;;;;;;5110215;28;20180;-43
2021/06/03 00:57:05;;;;;;;2.95;2.72;;;;;;;;;;5118435;28;20528;-43
2021/06/03 00:59:31;;;;;;;5.85;3.00;;;;;;;;;;5118180;28;20164;-43
2021/06/03 01:01:57;;;;;;;3.00;2.63;;;;;;;;;;5110222;28;20211;-43
2021/06/03 01:04:23;;;;;;;3.10;2.72;;;;;;;;;;5118330;28;20166;-43
2021/06/03 01:06:49;;;;;;;3.28;2.70;;;;;;;;;;5101070;28;20549;-43
2021/06/03 01:09:18;;;;;;;3.15;2.72;;;;;;;;;;5097273;28;20226;-43
2021/06/03 01:11:48;;;;;;;4.28;2.88;;;;;;;;;;5097697;28;20181;-43
2021/06/03 01:14:22;;;;;;;3.85;2.60;;;;;;;;;;5116790;28;20173;-43
2021/06/03 01:16:48;;;;;;;4.00;2.65;;;;;;;;;;5101586;28;20224;-43
2021/06/03 01:19:16;;;;;;;3.00;2.70;;;;;;;;;;5097391;28;20197;-43
2021/06/03 01:21:48;;;;;;;2.60;2.40;;;;;;;;;;5097792;28;20194;-43
2021/06/03 01:24:20;;;;;;;2.83;2.53;;;;;;;;;;5097328;28;20213;-43
2021/06/03 01:26:47;;;;;;;2.80;2.55;;;;;;;;;;5104150;28;20170;-43
2021/06/03 01:29:15;;;;;;;4.15;2.22;;;;;;;;;;5097555;28;20213;-42
2021/06/03 01:31:42;;;;;;;2.50;2.30;;;;;;;;;;5107416;28;20596;-42
2021/06/03 01:34:08;;;;;;;2.75;2.55;;;;;;;;;;5107168;28;20287;-42
2021/06/03 01:36:34;;;;;;;3.17;2.47;;;;;;;;;;5091730;28;20463;-42
2021/06/03 01:39:01;;;;;;;2.70;2.50;;;;;;;;;;5098677;28;20295;-42
2021/06/03 01:41:27;;;;;;;2.92;2.53;;;;;;;;;;5090229;28;20554;-42
2021/06/03 01:43:53;;;;;;;2.50;2.30;;;;;;;;;;5096943;28;20174;-42
2021/06/03 01:46:21;;;;;;;2.40;2.20;;;;;;;;;;5102658;28;20171;-42
2021/06/03 01:48:48;;;;;;;2.42;2.13;;;;;;;;;;5096210;28;20174;-42
2021/06/03 01:51:15;;;;;;;2.50;2.30;;;;;;;;;;5106674;28;20467;-43
2021/06/03 01:53:41;;;;;;;2.33;2.10;;;;;;;;;;5096857;28;20170;-43
2021/06/03 01:56:12;;;;;;;2.42;2.10;;;;;;;;;;5096841;28;20212;-43
2021/06/03 01:58:39;;;;;;;2.25;2.05;;;;;;;;;;5096858;28;20556;-43
2021/06/03 02:01:05;;;;;;;2.38;2.17;;;;;;;;;;5108065;28;20201;-43
2021/06/03 02:03:31;;;;;;;2.45;2.25;;;;;;;;;;5095656;28;20177;-43
2021/06/03 02:05:57;;;;;;;2.15;2.03;;;;;;;;;;5109962;28;20173;-43
2021/06/03 02:08:23;;;;;;;2.25;2.00;;;;;;;;;;5103377;28;20186;-43
2021/06/03 02:10:50;;;;;;;2.00;1.80;;;;;;;;;;5098889;28;20173;-43
2021/06/03 02:13:20;;;;;;;1.80;1.70;;;;;;;;;;5096221;28;20252;-43
2021/06/03 02:15:52;;;;;;;2.25;2.00;;;;;;;;;;5096141;28;20180;-43
2021/06/03 02:18:18;;;;;;;2.17;1.90;;;;;;;;;;5096351;28;20186;-42
2021/06/03 02:20:47;;;;;;;2.00;1.90;;;;;;;;;;5101523;28;20272;-42
2021/06/03 02:23:14;;;;;;;2.13;1.92;;;;;;;;;;5075907;28;20225;-42
2021/06/03 02:25:40;;;;;;;2.30;2.10;;;;;;;;;;5075839;28;20177;-42
2021/06/03 02:28:06;;;;;;;2.00;1.90;;;;;;;;;;5077910;28;20192;-42
2021/06/03 02:30:32;;;;;;;2.25;2.05;;;;;;;;;;5097441;28;20597;-42
2021/06/03 02:33:02;;;;;;;2.15;1.83;;;;;;;;;;5095877;28;20272;-42
2021/06/03 02:35:28;;;;;;;1.80;1.70;;;;;;;;;;5095949;28;20162;-42
2021/06/03 02:37:54;;;;;;;2.03;1.70;;;;;;;;;;5115529;28;20188;-42
2021/06/03 02:40:22;;;;;;;2.25;2.05;;;;;;;;;;5103257;28;20170;-42
2021/06/03 02:42:49;;;;;;;2.08;1.98;;;;;;;;;;5095302;28;20226;-42
2021/06/03 02:45:16;;;;;;;2.17;1.98;;;;;;;;;;5095768;28;20172;-42
2021/06/03 02:47:43;;;;;;;2.20;1.75;;;;;;;;;;5095571;28;20170;-42
2021/06/03 02:50:10;;;;;;;2.05;1.88;;;;;;;;;;5095909;28;20174;-42
2021/06/03 02:52:36;;;;;;;2.03;1.80;;;;;;;;;;5095260;28;20166;-42
2021/06/03 02:55:04;;;;;;;2.40;2.20;;;;;;;;;;5107265;28;20194;-42
2021/06/03 02:57:30;;;;;;;1.90;1.80;;;;;;;;;;5115786;28;20197;-42
2021/06/03 02:59:56;;;;;;;2.40;1.83;;;;;;;;;;5104539;28;20170;-42
2021/06/03 03:02:22;;;;;;;1.83;1.52;;;;;;;;;;5094567;28;20288;-42
2021/06/03 03:04:48;;;;;;;1.83;1.70;;;;;;;;;;5095770;28;20304;-42
2021/06/03 03:07:14;;;;;;;2.92;1.65;;;;;;;;;;5096476;28;20178;-42
2021/06/03 03:09:41;;;;;;;1.88;1.75;;;;;;;;;;5099687;28;20174;-42
2021/06/03 03:12:07;;;;;;;1.98;1.70;;;;;;;;;;5099840;28;20173;-42
2021/06/03 03:14:33;;;;;;;2.58;1.70;;;;;;;;;;5114981;28;20204;-42
2021/06/03 03:16:59;;;;;;;2.17;1.98;;;;;;;;;;5115042;28;20201;-42
2021/06/03 03:19:25;;;;;;;1.80;1.70;;;;;;;;;;5106341;28;20189;-42
2021/06/03 03:21:51;;;;;;;1.95;1.83;;;;;;;;;;5109383;28;20205;-42
2021/06/03 03:24:17;;;;;;;1.80;1.70;;;;;;;;;;5102310;28;20219;-42
2021/06/03 03:26:43;;;;;;;1.92;1.83;;;;;;;;;;5094886;28;20170;-42
2021/06/03 03:29:09;;;;;;;1.88;1.77;;;;;;;;;;5093938;28;20178;-42
2021/06/03 03:31:35;;;;;;;1.73;1.55;;;;;;;;;;5094181;28;20193;-42
2021/06/03 03:34:03;;;;;;;1.88;1.60;;;;;;;;;;5094616;28;20573;-42
2021/06/03 03:36:32;;;;;;;2.00;1.80;;;;;;;;;;5095005;28;20166;-42
2021/06/03 03:38:58;;;;;;;1.80;1.70;;;;;;;;;;5103507;28;20224;-42
2021/06/03 03:41:24;;;;;;;2.00;1.90;;;;;;;;;;5094876;28;20173;-42
2021/06/03 03:43:51;;;;;;;2.78;1.60;;;;;;;;;;5105527;28;20216;-42
2021/06/03 03:46:17;;;;;;;1.92;1.75;;;;;;;;;;5095475;28;20166;-42
2021/06/03 03:48:43;;;;;;;3.65;1.95;;;;;;;;;;5106052;28;20230;-42
2021/06/03 03:51:12;;;;;;;1.80;1.70;;;;;;;;;;5099787;28;20189;-42
2021/06/03 03:53:39;;;;;;;1.83;1.73;;;;;;;;;;5099826;28;20162;-42
2021/06/03 03:56:06;;;;;;;2.08;1.90;;;;;;;;;;5099351;28;20199;-42
2021/06/03 03:58:32;;;;;;;1.90;1.73;;;;;;;;;;5107968;28;20444;-42
2021/06/03 04:00:58;;;;;;;2.10;1.90;;;;;;;;;;5095063;28;20205;-42
2021/06/03 04:03:24;;;;;;;1.85;1.75;;;;;;;;;;5094642;28;20197;-42
2021/06/03 04:05:50;;;;;;;2.28;1.80;;;;;;;;;;5094714;28;20547;-42
2021/06/03 04:08:16;;;;;;;2.15;1.73;;;;;;;;;;5094227;28;20181;-42
2021/06/03 04:10:42;;;;;;;1.83;1.73;;;;;;;;;;5107889;28;20274;-42
2021/06/03 04:13:08;;;;;;;1.83;1.73;;;;;;;;;;5108183;28;20548;-42
2021/06/03 04:15:34;;;;;;;1.90;1.80;;;;;;;;;;5094496;28;20184;-42
2021/06/03 04:18:00;;;;;;;1.88;1.58;;;;;;;;;;5099617;28;20555;-42
2021/06/03 04:20:26;;;;;;;2.30;1.88;;;;;;;;;;5108113;28;20199;-42
2021/06/03 04:22:52;;;;;;;1.70;1.60;;;;;;;;;;5114272;28;20260;-43
2021/06/03 04:25:19;;;;;;;1.90;1.80;;;;;;;;;;5114886;28;20169;-42
2021/06/03 04:27:44;;;;;;;2.05;1.85;;;;;;;;;;5117714;28;20222;-42
2021/06/03 04:30:12;;;;;;;2.35;1.75;;;;;;;;;;5112511;28;20177;-42
2021/06/03 04:32:39;;;;;;;2.22;2.03;;;;;;;;;;5118210;28;20234;-42
2021/06/03 04:35:05;;;;;;;3.95;1.80;;;;;;;;;;5118579;28;20180;-42
2021/06/03 04:37:31;;;;;;;1.95;1.80;;;;;;;;;;5107869;28;20269;-42
2021/06/03 04:39:57;;;;;;;2.30;2.10;;;;;;;;;;5109091;28;20289;-42
2021/06/03 04:42:23;;;;;;;2.60;2.15;;;;;;;;;;5097571;28;20522;-43
2021/06/03 04:44:50;;;;;;;2.65;2.20;;;;;;;;;;5098021;28;20277;-43
2021/06/03 04:47:16;;;;;;;6.53;2.15;;;;;;;;;;5098154;28;20241;-43
2021/06/03 04:49:41;;;;;;;3.42;2.28;;;;;;;;;;5100898;28;20265;-42
2021/06/03 04:52:26;;;;;;;2.90;2.10;;;;;;;;;;5097244;28;20196;-42
2021/06/03 04:55:05;;;;;;;1.88;1.70;;;;;;;;;;5097800;28;20180;-42
2021/06/03 04:57:31;;;;;;;3.30;2.10;;;;;;;;;;5097718;28;20245;-42
2021/06/03 04:59:57;;;;;;;3.33;2.05;;;;;;;;;;5110679;28;20556;-42
2021/06/03 05:02:24;;;;;;;7.80;2.13;;;;;;;;;;5096893;28;20503;-42
2021/06/03 05:04:50;;;;;;;2.60;2.00;;;;;;;;;;5097624;28;20173;-43
2021/06/03 05:07:17;;;;;;;2.95;2.17;;;;;;;;;;5097589;28;20166;-43
2021/06/03 05:09:43;;;;;;;3.28;2.00;;;;;;;;;;5109916;28;20443;-44
2021/06/03 05:12:10;;;;;;;2.20;1.95;;;;;;;;;;5117603;28;20203;-44
2021/06/03 05:14:36;;;;;;;4.07;1.95;;;;;;;;;;5117082;28;20168;-44
2021/06/03 05:17:02;;;;;;;5.88;1.88;;;;;;;;;;5117548;28;20528;-44
2021/06/03 05:19:28;;;;;;;2.97;1.88;;;;;;;;;;5106955;28;20193;-44
2021/06/03 05:21:54;;;;;;;3.08;2.15;;;;;;;;;;5098242;28;20194;-45
2021/06/03 05:24:21;;;;;;;5.57;2.03;;;;;;;;;;5117542;28;20169;-45
2021/06/03 05:26:47;;;;;;;5.70;2.17;;;;;;;;;;5116755;28;20592;-44
2021/06/03 05:29:14;;;;;;;4.68;1.80;;;;;;;;;;5108094;28;20178;-44
2021/06/03 05:31:44;;;;;;;4.13;2.08;;;;;;;;;;5096824;28;20619;-45
2021/06/03 05:34:14;;;;;;;2.05;1.85;;;;;;;;;;5101425;28;20550;-45
2021/06/03 05:36:41;;;;;;;3.47;1.83;;;;;;;;;;5117170;28;20196;-45
2021/06/03 05:39:08;;;;;;;5.38;2.20;;;;;;;;;;5113256;28;20256;-45
2021/06/03 05:41:36;;;;;;;2.20;2.00;;;;;;;;;;5095294;28;20213;-44
2021/06/03 05:44:02;;;;;;;3.05;1.83;;;;;;;;;;5096298;28;20172;-44
2021/06/03 05:46:28;;;;;;;4.22;2.08;;;;;;;;;;5095580;28;20182;-44
2021/06/03 05:48:54;;;;;;;3.03;2.30;;;;;;;;;;5096723;28;20173;-44
2021/06/03 05:51:20;;;;;;;3.28;2.10;;;;;;;;;;5096795;28;20698;-44
2021/06/03 05:53:46;;;;;;;1.92;1.83;;;;;;;;;;5096327;28;20564;-44
2021/06/03 05:56:12;;;;;;;3.03;1.90;;;;;;;;;;5096423;28;20213;-45
2021/06/03 05:58:38;;;;;;;3.78;1.88;;;;;;;;;;5098484;28;20208;-45
2021/06/03 06:01:04;;;;;;;3.25;2.03;;;;;;;;;;5108302;28;20235;-45
2021/06/03 06:03:44;;;;;;;3.67;2.25;;;;;;;;;;5116489;28;20601;-45
2021/06/03 06:06:23;;;;;;;4.30;2.17;;;;;;;;;;5115417;28;20168;-45
2021/06/03 06:08:49;;;;;;;2.67;1.95;;;;;;;;;;5104287;28;20436;-45
2021/06/03 06:11:15;;;;;;;4.00;2.47;;;;;;;;;;5095782;28;20240;-45
2021/06/03 06:13:41;;;;;;;4.72;1.98;;;;;;;;;;5096296;28;20219;-45
2021/06/03 06:16:07;;;;;;;6.53;2.20;;;;;;;;;;5096698;28;20441;-45
2021/06/03 06:18:34;;;;;;;4.03;2.13;;;;;;;;;;5096165;28;20273;-45
2021/06/03 06:21:00;;;;;;;2.75;2.28;;;;;;;;;;5095978;28;20166;-45
2021/06/03 06:23:26;;;;;;;2.63;1.85;;;;;;;;;;5096595;28;20595;-45
2021/06/03 06:25:52;;;;;;;5.07;2.20;;;;;;;;;;5095610;28;20170;-45
2021/06/03 06:28:18;;;;;;;3.45;2.17;;;;;;;;;;5096370;28;20202;-45
2021/06/03 06:30:44;;;;;;;2.42;2.00;;;;;;;;;;5095870;28;20161;-44
2021/06/03 06:33:10;;;;;;;4.90;2.22;;;;;;;;;;5096281;28;20434;-44
2021/06/03 06:35:36;;;;;;;3.53;2.30;;;;;;;;;;5096203;28;20290;-44
2021/06/03 06:38:03;;;;;;;2.45;2.25;;;;;;;;;;5095925;28;20178;-44
2021/06/03 06:40:30;;;;;;;2.70;1.88;;;;;;;;;;5095550;28;20178;-44
2021/06/03 06:42:56;;;;;;;2.58;2.20;;;;;;;;;;5095964;28;20217;-44
2021/06/03 06:45:23;;;;;;;3.45;1.70;;;;;;;;;;5096336;28;20443;-44
2021/06/03 06:47:49;;;;;;;2.67;1.88;;;;;;;;;;5094308;28;20178;-44
2021/06/03 06:50:15;;;;;;;2.10;1.88;;;;;;;;;;5095022;28;20593;-44
2021/06/03 06:52:42;;;;;;;2.28;1.88;;;;;;;;;;5099169;28;20552;-44
2021/06/03 06:55:08;;;;;;;3.58;1.73;;;;;;;;;;5096521;28;20453;-44
2021/06/03 06:57:34;;;;;;;5.07;1.85;;;;;;;;;;5095392;28;20238;-44
2021/06/03 07:00:00;;;;;;;5.40;1.88;;;;;;;;;;5098704;28;20182;-45
2021/06/03 07:02:26;;;;;;;1.85;1.50;;;;;;;;;;5094565;28;20197;-45
2021/06/03 07:04:52;;;;;;;5.22;1.70;;;;;;;;;;5095365;28;20190;-44
2021/06/03 07:07:18;;;;;;;2.92;1.70;;;;;;;;;;5095472;28;20170;-44
2021/06/03 07:09:44;;;;;;;3.03;1.80;;;;;;;;;;5094996;28;20166;-44
2021/06/03 07:12:12;;;;;;;2.80;1.50;;;;;;;;;;5094980;28;20533;-44
2021/06/03 07:14:38;;;;;;;2.60;1.50;;;;;;;;;;5095643;28;20882;-44
2021/06/03 07:17:04;;;;;;;1.98;1.63;;;;;;;;;;5094887;28;20552;-44
2021/06/03 07:19:31;;;;;;;1.85;1.75;;;;;;;;;;5095168;28;20736;-45
2021/06/03 07:21:57;;;;;;;3.55;1.40;;;;;;;;;;5094519;28;20189;-45
2021/06/03 07:24:23;;;;;;;2.58;2.05;;;;;;;;;;5095099;28;20205;-45
2021/06/03 07:26:49;;;;;;;2.45;1.70;;;;;;;;;;5090508;28;20557;-45
2021/06/03 07:29:15;;;;;;;2.88;1.55;;;;;;;;;;5095182;28;20253;-39
2021/06/03 07:31:41;;;;;;;1.80;1.70;;;;;;;;;;5094641;28;20166;-47
2021/06/03 07:34:07;;;;;;;1.52;1.38;;;;;;;;;;5094977;28;20201;-44
2021/06/03 07:36:34;;;;;;;4.05;1.80;;;;;;;;;;5094574;28;20169;-44
2021/06/03 07:39:00;;;;;;;4.38;1.77;;;;;;;;;;5095052;28;20789;-44
2021/06/03 07:41:26;;;;;;;3.20;1.88;;;;;;;;;;5094196;28;20222;-44
2021/06/03 07:43:53;;;;;;;1.95;1.80;;;;;;;;;;5094822;28;20272;-44
2021/06/03 07:46:19;;;;;;;2.85;1.77;;;;;;;;;;5094655;28;20259;-44
2021/06/03 07:48:45;;;;;;;5.68;1.80;;;;;;;;;;5094562;28;20174;-44
2021/06/03 07:51:12;;;;;;;3.15;1.80;;;;;;;;;;5094251;28;20169;-44
2021/06/03 07:53:38;;;;;;;2.08;1.88;;;;;;;;;;5094681;28;20166;-44
2021/06/03 07:56:05;;;;;;;2.95;1.90;;;;;;;;;;5094651;28;20166;-44
2021/06/03 07:58:31;;;;;;;4.38;1.65;;;;;;;;;;5094922;28;20552;-44
2021/06/03 08:00:57;;;;;;;1.63;1.52;;;;;;;;;;5094109;28;20174;-44
2021/06/03 08:03:23;;;;;;;2.10;1.90;;;;;;;;;;5098768;28;20198;-44
2021/06/03 08:05:49;;;;;;;1.58;1.48;;;;;;;;;;5098607;28;20180;-44
2021/06/03 08:08:15;;;;;;;2.25;1.73;;;;;;;;;;5098403;28;20177;-44
2021/06/03 08:10:42;;;;;;;2.92;1.70;;;;;;;;;;5098366;28;20177;-44
2021/06/03 08:13:08;;;;;;;2.13;1.83;;;;;;;;;;5098583;28;20184;-44
2021/06/03 08:15:34;;;;;;;2.28;1.60;;;;;;;;;;5098724;28;20223;-44
2021/06/03 08:18:02;;;;;;;3.22;1.60;;;;;;;;;;5098525;28;20201;-44
2021/06/03 08:20:31;;;;;;;2.25;1.45;;;;;;;;;;5097918;28;20224;-44
2021/06/03 08:22:57;;;;;;;2.22;1.33;;;;;;;;;;5098569;28;20198;-45
2021/06/03 08:25:23;;;;;;;2.67;1.73;;;;;;;;;;5098557;28;20549;-44
2021/06/03 08:27:49;;;;;;;5.32;2.00;;;;;;;;;;5098356;28;20170;-44
2021/06/03 08:30:16;;;;;;;4.22;1.88;;;;;;;;;;5098506;28;20413;-44
2021/06/03 08:32:43;;;;;;;3.35;1.60;;;;;;;;;;5097659;28;20170;-44
2021/06/03 08:35:14;;;;;;;2.47;1.80;;;;;;;;;;5098156;28;20534;-44
2021/06/03 08:37:40;;;;;;;3.92;1.70;;;;;;;;;;5098111;28;20182;-44
2021/06/03 08:40:07;;;;;;;4.55;1.73;;;;;;;;;;5098395;28;20199;-44
2021/06/03 08:42:33;;;;;;;3.28;1.77;;;;;;;;;;5097637;28;20189;-44
2021/06/03 08:44:59;;;;;;;3.70;1.80;;;;;;;;;;5098188;28;20158;-44
2021/06/03 08:47:25;;;;;;;3.58;1.80;;;;;;;;;;5101501;28;20579;-44
2021/06/03 08:49:51;;;;;;;1.70;1.60;;;;;;;;;;5097403;28;20264;-44
2021/06/03 08:52:18;;;;;;;3.33;1.60;;;;;;;;;;5098077;28;20213;-44
2021/06/03 08:54:44;;;;;;;1.40;1.30;;;;;;;;;;5098247;28;20257;-44
2021/06/03 08:57:11;;;;;;;4.65;1.88;;;;;;;;;;5099438;28;20227;-44
2021/06/03 08:59:37;;;;;;;3.45;1.40;;;;;;;;;;5117498;28;20467;-44
2021/06/03 09:02:03;;;;;;;2.15;1.80;;;;;;;;;;5098123;28;20202;-44
2021/06/03 09:04:29;;;;;;;1.73;1.58;;;;;;;;;;5114852;28;20188;-44
2021/06/03 09:06:55;;;;;;;2.08;1.52;;;;;;;;;;5097848;28;20178;-44
2021/06/03 09:09:29;;;;;;;2.50;1.58;;;;;;;;;;5097591;28;20170;-44
2021/06/03 09:12:10;;;;;;;1.80;1.70;;;;;;;;;;5096830;28;20199;-44
2021/06/03 09:14:36;;;;;;;2.00;1.90;;;;;;;;;;5097081;28;20166;-44
2021/06/03 09:17:03;;;;;;;1.50;1.40;;;;;;;;;;5096973;28;20216;-44
2021/06/03 09:19:29;;;;;;;3.92;1.70;;;;;;;;;;5097399;28;20265;-44
2021/06/03 09:21:55;;;;;;;1.50;1.40;;;;;;;;;;5096686;28;20686;-44
2021/06/03 09:24:22;;;;;;;3.47;2.05;;;;;;;;;;5096765;28;20197;-44
2021/06/03 09:26:48;;;;;;;1.70;1.60;;;;;;;;;;5097214;28;20452;-44
2021/06/03 09:29:19;;;;;;;2.30;1.60;;;;;;;;;;5096713;28;20166;-44
2021/06/03 09:31:45;;;;;;;4.47;1.80;;;;;;;;;;5099034;28;20211;-44
2021/06/03 09:34:14;;;;;;;2.40;1.48;;;;;;;;;;5097184;28;20174;-44
2021/06/03 09:36:52;;;;;;;1.92;1.52;;;;;;;;;;5097081;28;20182;-44
2021/06/03 09:39:21;;;;;;;1.50;1.40;;;;;;;;;;5097078;28;20170;-44
2021/06/03 09:41:47;;;;;;;1.95;1.75;;;;;;;;;;5095196;28;20536;-44
2021/06/03 09:44:13;;;;;;;3.38;1.52;;;;;;;;;;5097052;28;20184;-43
2021/06/03 09:46:44;;;;;;;3.58;1.60;;;;;;;;;;5096668;28;20549;-43
2021/06/03 09:49:15;;;;;;;1.60;1.30;;;;;;;;;;5096687;28;20186;-44
2021/06/03 09:51:44;;;;;;;2.00;1.80;;;;;;;;;;5096205;28;20239;-44
2021/06/03 09:54:11;;;;;;;12.10;1.90;;;;;;;;;;5096345;28;20162;-44
2021/06/03 09:56:39;;;;;;;2.95;1.40;;;;;;;;;;5096543;28;20266;-43
2021/06/03 09:59:07;;;;;;;3.08;1.60;;;;;;;;;;5098100;28;20176;-44
2021/06/03 10:01:42;;;;;;;1.70;1.60;;;;;;;;;;5101381;28;20209;-44
2021/06/03 10:04:09;;;;;;;3.40;1.92;;;;;;;;;;5096697;28;20165;-44
2021/06/03 10:06:52;;;;;;;6.88;2.05;;;;;;;;;;5096602;28;20212;-44
2021/06/03 10:09:18;;;;;;;2.17;1.70;;;;;;;;;;5095179;28;20548;-44
2021/06/03 10:11:45;;;;;;;2.83;1.67;;;;;;;;;;5095414;28;20182;-44
2021/06/03 10:14:12;;;;;;;2.35;1.67;;;;;;;;;;5096076;28;20170;-44
2021/06/03 10:16:38;;;;;;;2.42;1.77;;;;;;;;;;5096505;28;20166;-44
2021/06/03 10:19:36;;;;;;;2.58;1.70;;;;;;;;;;5096267;28;20201;-44
2021/06/03 10:22:19;;;;;;;3.20;1.90;;;;;;;;;;5051192;28;20451;-44
2021/06/03 10:24:53;;;;;;;2.65;1.50;;;;;;;;;;5095848;28;20529;-44
2021/06/03 10:27:20;;;;;;;2.53;1.70;;;;;;;;;;5079762;28;20187;-44
2021/06/03 10:29:48;;;;;;;4.30;1.85;;;;;;;;;;5108449;28;20166;-44
2021/06/03 10:32:14;;;;;;;1.67;1.50;;;;;;;;;;5095712;28;20178;-44
2021/06/03 10:34:41;;;;;;;3.58;2.10;;;;;;;;;;5095830;28;20170;-44
2021/06/03 10:37:07;;;;;;;2.28;1.60;;;;;;;;;;5114907;28;20184;-44
2021/06/03 10:39:33;;;;;;;2.92;1.70;;;;;;;;;;5105278;28;20219;-44
2021/06/03 10:42:01;;;;;;;3.20;1.67;;;;;;;;;;5095023;28;20197;-45
2021/06/03 10:44:28;;;;;;;2.88;1.90;;;;;;;;;;5095556;28;20843;-44
2021/06/03 10:46:54;;;;;;;2.08;1.70;;;;;;;;;;5097375;28;20456;-44
2021/06/03 10:49:22;;;;;;;2.03;1.38;;;;;;;;;;5093962;28;20181;-44
2021/06/03 10:51:48;;;;;;;1.60;1.50;;;;;;;;;;5094203;28;20274;-43
2021/06/03 10:54:15;;;;;;;2.25;1.90;;;;;;;;;;5095599;28;20192;-44
2021/06/03 10:56:56;;;;;;;1.73;1.60;;;;;;;;;;5095481;28;20170;-44
2021/06/03 10:59:29;;;;;;;1.83;1.65;;;;;;;;;;5095407;28;20201;-44
2021/06/03 11:01:57;;;;;;;1.77;1.60;;;;;;;;;;5094818;28;20515;-44
2021/06/03 11:04:27;;;;;;;2.42;1.67;;;;;;;;;;5095563;28;20186;-44
2021/06/03 11:06:53;;;;;;;3.78;1.90;;;;;;;;;;5095332;28;20168;-43
2021/06/03 11:09:25;;;;;;;2.25;1.80;;;;;;;;;;5094882;28;20181;-43
2021/06/03 11:12:05;;;;;;;1.70;1.60;;;;;;;;;;5094702;28;20200;-44
2021/06/03 11:14:31;;;;;;;1.70;1.60;;;;;;;;;;5095536;28;20162;-44
2021/06/03 11:16:59;;;;;;;1.60;1.50;;;;;;;;;;5095447;28;20162;-44
2021/06/03 11:19:25;;;;;;;1.73;1.60;;;;;;;;;;5094945;28;20280;-44
2021/06/03 11:22:02;;;;;;;1.75;1.65;;;;;;;;;;5094433;28;20638;-44
2021/06/03 11:24:30;;;;;;;1.77;1.58;;;;;;;;;;5095273;28;20487;-44
2021/06/03 11:27:00;;;;;;;1.92;1.77;;;;;;;;;;5095017;28;20177;-44
2021/06/03 11:29:30;;;;;;;2.03;1.77;;;;;;;;;;5095009;28;20181;-44
2021/06/03 11:32:11;;;;;;;1.67;1.38;;;;;;;;;;5094456;28;20203;-44
2021/06/03 11:34:42;;;;;;;1.88;1.50;;;;;;;;;;5095152;28;20177;-44
2021/06/03 11:37:11;;;;;;;2.60;1.70;;;;;;;;;;5094102;28;20180;-44
2021/06/03 11:39:56;;;;;;;2.47;1.48;;;;;;;;;;5091363;28;20173;-45
2021/06/03 11:42:29;;;;;;;3.00;1.60;;;;;;;;;;5094338;28;20611;-44
2021/06/03 11:45:07;;;;;;;2.30;1.40;;;;;;;;;;5074714;28;20257;-44
2021/06/03 11:47:42;;;;;;;1.65;1.55;;;;;;;;;;5075046;28;20170;-44
2021/06/03 11:50:14;;;;;;;1.88;1.48;;;;;;;;;;5094725;28;20166;-44
2021/06/03 11:53:03;;;;;;;2.97;1.73;;;;;;;;;;5093881;28;20185;-44
2021/06/03 11:55:35;;;;;;;2.08;1.85;;;;;;;;;;5081949;28;20488;-44
2021/06/03 11:58:10;;;;;;;1.90;1.42;;;;;;;;;;5094866;28;20174;-44
2021/06/03 12:00:56;;;;;;;2.88;1.48;;;;;;;;;;5094330;28;20257;-44
2021/06/03 12:03:30;;;;;;;1.50;1.40;;;;;;;;;;5094239;28;20236;-44
2021/06/03 12:05:58;;;;;;;2.97;1.60;;;;;;;;;;5094586;28;20533;-44
2021/06/03 12:08:34;;;;;;;1.73;1.63;;;;;;;;;;5094585;28;20189;-44
2021/06/03 12:11:00;;;;;;;1.92;1.70;;;;;;;;;;5094084;28;20540;-44
2021/06/03 12:13:26;;;;;;;1.63;1.52;;;;;;;;;;5094394;28;20433;-44
2021/06/03 12:15:52;;;;;;;1.52;1.42;;;;;;;;;;5094202;28;20648;-44
2021/06/03 12:18:18;;;;;;;2.78;1.63;;;;;;;;;;5094517;28;20170;-44
2021/06/03 12:20:44;;;;;;;2.50;1.50;;;;;;;;;;5094058;28;20276;-44
2021/06/03 12:23:11;;;;;;;1.88;1.77;;;;;;;;;;5094343;28;20200;-44
2021/06/03 12:25:39;;;;;;;1.63;1.52;;;;;;;;;;5094551;28;20224;-44
2021/06/03 12:28:06;;;;;;;2.10;1.80;;;;;;;;;;5094333;28;20200;-44
2021/06/03 12:30:34;;;;;;;1.70;1.60;;;;;;;;;;5090009;28;20236;-44
2021/06/03 12:33:00;;;;;;;1.88;1.77;;;;;;;;;;5110222;28;20435;-44
2021/06/03 12:35:36;;;;;;;1.92;1.77;;;;;;;;;;5092664;28;20273;-44
2021/06/03 12:38:03;;;;;;;2.10;1.90;;;;;;;;;;5086237;28;20170;-44
2021/06/03 12:40:30;;;;;;;3.03;1.75;;;;;;;;;;5083885;28;20188;-44
2021/06/03 12:43:01;;;;;;;1.80;1.67;;;;;;;;;;5097541;28;20197;-44
2021/06/03 12:45:29;;;;;;;2.38;1.70;;;;;;;;;;5094383;28;20178;-44
2021/06/03 12:47:55;;;;;;;1.50;1.40;;;;;;;;;;5095825;28;20173;-44
2021/06/03 12:50:21;;;;;;;1.90;1.60;;;;;;;;;;5101857;28;20178;-44
2021/06/03 12:52:48;;;;;;;1.88;1.75;;;;;;;;;;5097331;28;20178;-44
2021/06/03 12:55:16;;;;;;;1.85;1.52;;;;;;;;;;5097684;28;20196;-44
2021/06/03 12:57:42;;;;;;;2.97;1.52;;;;;;;;;;5100142;28;20170;-44
2021/06/03 13:00:16;;;;;;;1.63;1.52;;;;;;;;;;5115346;28;20177;-44
2021/06/03 13:02:46;;;;;;;1.63;1.52;;;;;;;;;;5097289;28;20205;-44
2021/06/03 13:05:13;;;;;;;1.67;1.58;;;;;;;;;;5105581;28;20464;-44
2021/06/03 13:07:41;;;;;;;1.67;1.58;;;;;;;;;;5102312;28;20196;-44
2021/06/03 13:10:09;;;;;;;1.80;1.70;;;;;;;;;;5097168;28;20185;-44
2021/06/03 13:12:35;;;;;;;2.00;1.85;;;;;;;;;;5097168;28;20182;-44
2021/06/03 13:15:03;;;;;;;1.77;1.50;;;;;;;;;;5097765;28;20166;-44
2021/06/03 13:17:32;;;;;;;1.90;1.70;;;;;;;;;;5097744;28;20188;-44
2021/06/03 13:19:58;;;;;;;1.92;1.60;;;;;;;;;;5099129;28;20174;-44
2021/06/03 13:22:26;;;;;;;2.58;1.60;;;;;;;;;;5095294;28;20201;-44
2021/06/03 13:24:53;;;;;;;1.48;1.38;;;;;;;;;;5093667;28;20454;-44
2021/06/03 13:27:26;;;;;;;2.70;1.80;;;;;;;;;;5106681;28;20200;-44
2021/06/03 13:29:57;;;;;;;1.75;1.65;;;;;;;;;;5097034;28;20170;-44
2021/06/03 13:32:45;;;;;;;1.95;1.75;;;;;;;;;;5085207;28;20190;-44
2021/06/03 13:35:13;;;;;;;2.42;1.63;;;;;;;;;;5089618;28;20507;-44
2021/06/03 13:37:40;;;;;;;2.08;1.52;;;;;;;;;;5097257;28;20763;-44
2021/06/03 13:40:10;;;;;;;1.73;1.55;;;;;;;;;;5107001;28;20257;-44
2021/06/03 13:42:39;;;;;;;1.83;1.65;;;;;;;;;;5105600;28;20210;-45
2021/06/03 13:45:10;;;;;;;1.73;1.50;;;;;;;;;;5095528;28;20177;-44
2021/06/03 13:48:15;;;;;;;1.88;1.40;;;;;;;;;;5088657;28;20209;-44
2021/06/03 13:50:46;;;;;;;1.98;1.52;;;;;;;;;;5032242;28;20551;-44
2021/06/03 13:53:14;;;;;;;5.60;1.80;;;;;;;;;;5029818;28;20617;-44
2021/06/03 13:55:46;;;;;;;1.77;1.67;;;;;;;;;;5063118;28;20509;-44
2021/06/03 13:58:12;;;;;;;3.28;1.75;;;;;;;;;;5096051;28;20166;-44
2021/06/03 14:00:44;;;;;;;1.67;1.58;;;;;;;;;;5105371;28;20181;-44
2021/06/03 14:03:13;;;;;;;1.85;1.65;;;;;;;;;;5106210;28;20201;-44
2021/06/03 14:05:41;;;;;;;1.60;1.50;;;;;;;;;;5102932;28;20268;-44
2021/06/03 14:08:10;;;;;;;2.63;1.92;;;;;;;;;;5097466;28;20651;-44
2021/06/03 14:10:56;;;;;;;1.77;1.67;;;;;;;;;;5095382;28;20303;-44
2021/06/03 14:13:22;;;;;;;1.48;1.38;;;;;;;;;;5096352;28;20276;-45
2021/06/03 14:15:48;;;;;;;3.58;2.03;;;;;;;;;;5096462;28;20197;-44
2021/06/03 14:18:14;;;;;;;4.47;1.70;;;;;;;;;;5096170;28;20580;-44
2021/06/03 14:20:40;;;;;;;1.50;1.40;;;;;;;;;;5099026;28;20181;-44
2021/06/03 14:23:07;;;;;;;1.92;1.80;;;;;;;;;;5095787;28;20221;-45
2021/06/03 14:25:39;;;;;;;1.83;1.70;;;;;;;;;;5096080;28;20168;-44
2021/06/03 14:28:18;;;;;;;2.75;1.77;;;;;;;;;;5108870;28;20284;-44
2021/06/03 14:30:52;;;;;;;1.85;1.67;;;;;;;;;;5075436;28;20166;-44
2021/06/03 14:33:19;;;;;;;2.75;2.10;;;;;;;;;;5075573;28;20174;-44
2021/06/03 14:35:46;;;;;;;1.98;1.70;;;;;;;;;;5098249;28;20257;-44
2021/06/03 14:38:14;;;;;;;3.50;1.88;;;;;;;;;;5110034;28;20234;-44
2021/06/03 14:40:42;;;;;;;2.47;1.80;;;;;;;;;;5112663;28;20533;-44
2021/06/03 14:43:08;;;;;;;2.65;1.80;;;;;;;;;;5110628;28;20630;-44
2021/06/03 14:45:35;;;;;;;1.75;1.65;;;;;;;;;;5099441;28;20174;-44
2021/06/03 14:48:01;;;;;;;1.70;1.60;;;;;;;;;;5103050;28;20174;-44